Time;durP1;ratioP1;P1;durP2;ratioP2;P2;SDS_P1;SDS_P2;PMS_P1;PMS_P2;Temp;Humidity;BMP_temperature;BMP_pressure;BME280_temperature;BME280_humidity;BME280_pressure;Samples;Min_cycle;Max_cycle;Signal;HPM_P1;HPM_P2
2021/08/06 00:01:28;;;;;;;2.53;1.30;;;16.60;82.10;;;15.43;81.35;95336.59;4935251;28;20045;-67
2021/08/06 00:03:55;;;;;;;3.58;1.40;;;16.70;82.20;;;15.43;81.06;95332.09;4936117;28;20083;-68
2021/08/06 00:06:26;;;;;;;3.50;1.45;;;16.70;82.40;;;15.45;81.77;95331.88;4979428;28;20176;-68
2021/08/06 00:08:53;;;;;;;2.33;1.45;;;16.60;82.30;;;15.40;81.51;95318.53;4945718;28;20045;-68
2021/08/06 00:11:19;;;;;;;2.75;1.35;;;16.60;82.40;;;15.39;81.63;95322.19;4925200;28;20039;-68
2021/08/06 00:13:45;;;;;;;1.73;1.13;;;16.60;82.90;;;15.39;82.11;95322.19;4942017;28;20039;-68
2021/08/06 00:16:10;;;;;;;2.75;1.35;;;16.60;83.10;;;15.40;81.96;95318.53;4953104;28;20062;-67
2021/08/06 00:18:36;;;;;;;1.60;1.17;;;16.60;82.80;;;15.40;81.43;95321.97;4980776;28;20035;-68
2021/08/06 00:21:02;;;;;;;2.22;1.00;;;16.60;82.50;;;15.42;82.21;95321.75;4935245;28;20046;-68
2021/08/06 00:23:28;;;;;;;2.55;1.30;;;16.70;82.90;;;15.43;82.12;95320.69;4928868;28;20043;-68
2021/08/06 00:25:54;;;;;;;2.50;1.25;;;16.80;83.00;;;15.43;81.59;95316.22;4972317;28;20966;-68
2021/08/06 00:28:20;;;;;;;3.78;1.75;;;16.80;82.70;;;15.42;82.50;95314.59;4947134;28;20050;-68
2021/08/06 00:30:46;;;;;;;3.00;1.58;;;16.80;82.60;;;15.43;82.32;95308.25;4952059;28;20036;-67
2021/08/06 00:33:11;;;;;;;2.38;1.55;;;16.80;82.50;;;15.42;81.40;95311.16;4945248;28;20130;-67
2021/08/06 00:35:37;;;;;;;2.50;1.70;;;16.70;82.60;;;15.42;82.74;95311.94;4932401;28;20059;-67
2021/08/06 00:38:03;;;;;;;3.10;1.90;;;16.80;82.90;;;15.43;82.88;95308.25;4985385;28;20039;-67
2021/08/06 00:40:28;;;;;;;3.78;1.38;;;16.80;83.00;;;15.43;81.73;95308.25;4960942;28;20042;-67
2021/08/06 00:42:54;;;;;;;2.85;1.65;;;16.80;82.70;;;15.45;81.38;95315.97;4941570;28;20055;-68
2021/08/06 00:45:21;;;;;;;2.08;1.23;;;16.80;82.50;;;15.44;82.31;95312.50;4972536;28;20039;-68
2021/08/06 00:47:47;;;;;;;2.70;1.30;;;16.80;82.50;;;15.45;82.02;95305.38;4920433;28;20046;-67
2021/08/06 00:50:13;;;;;;;2.65;1.00;;;16.80;82.40;;;15.45;81.96;95305.38;4927965;29;20082;-68
2021/08/06 00:52:39;;;;;;;2.20;1.15;;;16.80;82.50;;;15.45;82.27;95300.88;4937270;28;20031;-68
2021/08/06 00:55:05;;;;;;;2.10;1.20;;;16.80;82.30;;;15.43;81.72;95305.59;4949258;28;20053;-68
2021/08/06 00:57:31;;;;;;;2.28;1.25;;;16.70;82.00;;;15.40;81.08;95307.94;4935964;29;20067;-68
2021/08/06 00:59:57;;;;;;;2.30;1.20;;;16.60;82.30;;;15.33;81.43;95308.88;4949376;28;20500;-67
2021/08/06 01:02:29;;;;;;;2.22;1.00;;;16.50;82.40;;;15.29;82.27;95306.94;4948959;28;20038;-68
2021/08/06 01:05:19;;;;;;;4.88;1.38;;;16.50;82.90;;;15.29;83.52;95296.34;4938231;28;20026;-68
2021/08/06 01:08:06;;;;;;;4.15;1.50;;;16.60;82.80;;;15.27;82.27;95299.22;4937694;28;20043;-68
2021/08/06 01:10:45;;;;;;;2.97;1.20;;;16.60;82.50;;;15.25;83.26;95298.66;4953523;28;20045;-68
2021/08/06 01:13:14;;;;;;;3.15;1.35;;;16.60;82.80;;;15.23;83.36;95298.09;4937678;28;20445;-68
2021/08/06 01:15:40;;;;;;;1.55;1.30;;;16.60;82.80;;;15.23;82.06;95298.09;4952707;28;20113;-67
2021/08/06 01:18:06;;;;;;;2.35;1.30;;;16.60;82.70;;;15.18;82.84;95300.66;4947370;28;20060;-67
2021/08/06 01:20:46;;;;;;;1.92;1.35;;;16.50;82.40;;;15.15;82.23;95305.59;4938505;28;20039;-67
2021/08/06 01:23:26;;;;;;;2.10;1.52;;;16.40;82.60;;;15.08;83.17;95300.44;4951451;28;20035;-67
2021/08/06 01:26:23;;;;;;;3.13;1.30;;;16.30;83.10;;;15.06;83.38;95296.44;4953270;28;20039;-67
2021/08/06 01:28:49;;;;;;;3.67;1.60;;;16.30;83.10;;;14.99;82.80;95297.38;4969756;28;20076;-67
2021/08/06 01:31:27;;;;;;;3.40;1.48;;;16.20;83.10;;;14.99;82.63;95296.59;4939719;28;20049;-68
2021/08/06 01:33:53;;;;;;;3.67;1.48;;;16.30;83.40;;;14.97;83.31;95298.66;4908380;28;20058;-67
2021/08/06 01:36:19;;;;;;;2.65;1.38;;;16.30;83.00;;;14.94;81.49;95292.00;4951865;28;20031;-67
2021/08/06 01:38:44;;;;;;;4.03;1.50;;;16.20;82.90;;;14.92;82.67;95293.25;4950126;28;20060;-67
2021/08/06 01:41:26;;;;;;;2.65;1.48;;;16.20;82.90;;;14.90;83.59;95293.47;4939464;28;20091;-67
2021/08/06 01:44:32;;;;;;;2.50;1.40;;;16.30;83.30;;;14.89;84.16;95301.66;4931761;28;20043;-68
2021/08/06 01:47:06;;;;;;;2.03;1.25;;;16.20;83.10;;;14.82;83.00;95298.34;4980744;28;20034;-68
2021/08/06 01:49:40;;;;;;;2.17;1.33;;;16.10;83.10;;;14.76;82.80;95296.66;4936281;29;20067;-68
2021/08/06 01:52:10;;;;;;;1.67;1.40;;;15.90;83.40;;;14.70;83.28;95293.88;4958211;28;20035;-67
2021/08/06 01:54:36;;;;;;;3.08;1.38;;;15.90;83.60;;;14.69;83.57;95297.56;4947299;28;20130;-67
2021/08/06 01:57:02;;;;;;;4.13;1.60;;;16.00;83.50;;;14.67;82.56;95298.84;4950963;28;20063;-67
2021/08/06 01:59:28;;;;;;;5.38;1.30;;;15.90;83.50;;;14.64;82.99;95300.13;4929156;28;20031;-67
2021/08/06 02:01:55;;;;;;;3.00;1.60;;;15.90;83.50;;;14.60;83.43;95291.03;4943248;28;20035;-67
2021/08/06 02:04:22;;;;;;;3.53;1.35;;;15.80;83.70;;;14.58;83.77;95287.81;4965883;28;20043;-68
2021/08/06 02:06:48;;;;;;;2.38;1.42;;;15.90;83.80;;;14.58;83.69;95284.38;4935261;28;20046;-68
2021/08/06 02:09:18;;;;;;;1.77;1.40;;;15.90;83.90;;;14.56;83.21;95283.81;4935474;28;20043;-67
2021/08/06 02:11:44;;;;;;;3.10;1.38;;;15.80;83.60;;;14.52;83.21;95280.81;4935266;28;20051;-68
2021/08/06 02:14:15;;;;;;;2.30;1.40;;;15.80;83.60;;;14.50;83.64;95277.63;4947169;28;20030;-67
2021/08/06 02:16:41;;;;;;;4.55;1.85;;;15.70;83.70;;;14.49;83.94;95276.00;4945384;28;20459;-68
2021/08/06 02:19:08;;;;;;;3.17;1.45;;;15.80;83.70;;;14.47;82.93;95275.41;4938286;28;20031;-68
2021/08/06 02:21:34;;;;;;;1.88;1.48;;;15.80;83.60;;;14.45;83.10;95269.53;4920059;28;20058;-68
2021/08/06 02:24:09;;;;;;;2.55;1.63;;;15.80;83.70;;;14.45;83.03;95272.19;4945240;28;20028;-67
2021/08/06 02:26:36;;;;;;;11.32;7.35;;;15.70;83.90;;;14.43;84.56;95274.25;4958588;28;20027;-67
2021/08/06 02:29:05;;;;;;;11.38;8.27;;;15.70;84.10;;;14.42;84.30;95272.63;4938927;28;20178;-68
2021/08/06 02:31:31;;;;;;;9.35;5.88;;;15.80;83.80;;;14.40;83.99;95266.78;4949243;28;20031;-68
2021/08/06 02:33:56;;;;;;;12.27;9.70;;;15.80;83.80;;;14.39;84.22;95260.66;4947575;28;20738;-68
2021/08/06 02:36:22;;;;;;;10.18;7.13;;;15.80;83.90;;;14.40;83.40;95264.13;4951042;28;20466;-67
2021/08/06 02:38:48;;;;;;;15.27;11.75;;;15.80;83.80;;;14.40;82.94;95264.94;4918217;28;20118;-67
2021/08/06 02:41:14;;;;;;;4.65;3.70;;;15.80;83.60;;;14.39;84.27;95260.66;4921888;29;20360;-67
2021/08/06 02:43:40;;;;;;;5.72;2.55;;;15.80;83.50;;;14.38;83.64;95260.91;4934836;28;20067;-68
2021/08/06 02:46:06;;;;;;;4.57;2.67;;;15.70;83.40;;;14.39;84.15;95259.88;4944122;28;20054;-68
2021/08/06 02:48:32;;;;;;;4.95;3.20;;;15.80;83.70;;;14.36;84.16;95249.75;4954759;28;20580;-68
2021/08/06 02:50:57;;;;;;;10.23;8.20;;;15.70;83.50;;;14.36;84.68;95253.22;4940907;28;20122;-67
2021/08/06 02:53:23;;;;;;;5.55;3.38;;;15.70;83.60;;;14.36;82.52;95252.41;4963113;28;20049;-68
2021/08/06 02:55:49;;;;;;;4.22;2.45;;;15.60;83.10;;;14.34;83.49;95255.28;4968005;28;20044;-67
2021/08/06 02:58:15;;;;;;;2.72;1.80;;;15.60;83.30;;;14.32;82.44;95254.72;4943960;28;20110;-67
2021/08/06 03:00:40;;;;;;;3.55;3.15;;;15.60;83.50;;;14.31;83.30;95253.09;4933952;28;20117;-67
2021/08/06 03:03:06;;;;;;;7.53;4.78;;;15.60;83.60;;;14.31;82.62;95252.31;4955225;28;20073;-68
2021/08/06 03:05:32;;;;;;;4.38;3.28;;;15.60;83.50;;;14.30;83.04;95250.69;4953631;28;20130;-66
2021/08/06 03:07:58;;;;;;;2.67;1.85;;;15.60;83.30;;;14.27;83.64;95246.69;4930434;28;20050;-67
2021/08/06 03:10:23;;;;;;;3.33;1.25;;;15.60;83.40;;;14.26;82.84;95250.38;4959060;28;20066;-67
2021/08/06 03:12:50;;;;;;;1.67;1.30;;;15.50;83.60;;;14.25;82.81;95258.50;4939380;28;20047;-66
2021/08/06 03:15:17;;;;;;;3.75;1.50;;;15.60;83.60;;;14.23;83.06;95244.72;4937189;29;20070;-67
2021/08/06 03:17:43;;;;;;;4.07;1.50;;;15.60;83.70;;;14.22;82.86;95264.25;4948160;28;20070;-67
2021/08/06 03:20:14;;;;;;;3.55;1.33;;;15.50;83.70;;;14.20;83.74;95264.50;4954109;28;20035;-68
2021/08/06 03:22:40;;;;;;;;;;;15.60;83.70;;;14.17;84.25;95267.59;4938326;28;20041;-68
2021/08/06 03:25:09;;;;;;;3.20;1.33;;;15.60;83.70;;;14.15;83.65;95264.38;4946048;28;19930;-67
2021/08/06 03:27:35;;;;;;;4.38;1.60;;;15.50;83.90;;;14.12;83.44;95274.63;4964883;28;20061;-67
2021/08/06 03:30:01;;;;;;;2.40;1.90;;;15.50;84.10;;;14.13;83.67;95281.53;4926911;29;20558;-68
2021/08/06 03:32:27;;;;;;;23.05;19.65;;;15.50;84.10;;;14.14;84.58;95272.56;4953406;28;20529;-67
2021/08/06 03:34:52;;;;;;;16.98;12.80;;;15.60;84.20;;;14.14;84.37;95277.84;4948650;28;20047;-68
2021/08/06 03:37:18;;;;;;;29.67;26.63;;;15.60;84.00;;;14.13;84.17;95276.22;4955735;28;20027;-68
2021/08/06 03:39:44;;;;;;;19.25;16.38;;;15.50;84.10;;;14.13;84.26;95270.94;4957840;28;20046;-68
2021/08/06 03:42:09;;;;;;;16.70;14.07;;;15.50;83.90;;;14.12;83.31;95277.28;4945733;28;20023;-68
2021/08/06 03:44:35;;;;;;;13.48;11.98;;;15.50;83.70;;;14.10;84.43;95288.88;4938650;28;20186;-68
2021/08/06 03:47:01;;;;;;;5.43;3.92;;;15.50;83.60;;;14.09;84.38;95282.00;4950737;28;20462;-67
2021/08/06 03:49:27;;;;;;;4.88;2.78;;;15.50;83.50;;;14.07;84.45;95289.34;4931024;29;20423;-67
2021/08/06 03:51:53;;;;;;;3.28;2.35;;;15.50;83.50;;;14.05;83.80;95288.78;4940551;28;20044;-68
2021/08/06 03:54:18;;;;;;;2.83;2.13;;;15.50;83.60;;;14.03;83.64;95285.56;4928056;28;20070;-68
2021/08/06 03:56:44;;;;;;;2.22;1.67;;;15.50;83.50;;;14.03;84.70;95288.22;4973678;28;20427;-67
2021/08/06 03:59:10;;;;;;;3.20;1.85;;;15.50;83.40;;;14.03;83.82;95287.38;4940118;29;20536;-68
2021/08/06 04:01:36;;;;;;;4.78;1.80;;;15.50;83.50;;;14.02;83.44;95285.75;4933694;28;20074;-67
2021/08/06 04:04:01;;;;;;;4.55;2.15;;;15.50;83.50;;;14.02;84.37;95291.06;4959036;28;20094;-67
2021/08/06 04:06:27;;;;;;;4.22;1.65;;;15.50;83.50;;;14.02;84.69;95297.16;4971330;28;20031;-68
2021/08/06 04:08:53;;;;;;;4.55;1.98;;;15.50;83.50;;;14.01;83.86;95295.53;4963122;28;20043;-69
2021/08/06 04:11:20;;;;;;;3.35;1.27;;;15.40;83.50;;;14.02;83.92;95294.50;4931346;28;20035;-68
2021/08/06 04:13:46;;;;;;;2.72;1.50;;;15.50;83.50;;;14.01;83.95;95284.97;4941219;29;20527;-68
2021/08/06 04:16:12;;;;;;;2.17;1.33;;;15.50;83.50;;;14.03;84.26;95288.22;4923458;29;20107;-68
2021/08/06 04:18:38;;;;;;;11.73;10.48;;;15.50;83.40;;;14.04;85.31;95295.09;4946047;28;20050;-68
2021/08/06 04:21:04;;;;;;;14.73;13.20;;;15.60;83.40;;;14.06;84.67;95284.28;4952195;28;20056;-68
2021/08/06 04:23:29;;;;;;;7.10;6.40;;;15.60;83.30;;;14.08;85.22;95279.56;4923708;29;20404;-67
2021/08/06 04:25:55;;;;;;;2.65;2.30;;;15.60;83.30;;;14.10;84.99;95280.94;4985767;28;20533;-68
2021/08/06 04:28:21;;;;;;;2.35;1.50;;;15.60;83.40;;;14.15;84.27;95280.25;4969267;28;20423;-68
2021/08/06 04:30:47;;;;;;;2.15;1.80;;;15.70;83.20;;;14.19;84.59;95275.31;4945180;28;20066;-68
2021/08/06 04:33:12;;;;;;;2.80;1.90;;;15.70;83.10;;;14.21;83.81;95274.03;4955337;28;20035;-68
2021/08/06 04:35:38;;;;;;;2.28;1.60;;;15.80;82.90;;;14.26;84.77;95271.53;4943959;28;20050;-68
2021/08/06 04:38:04;;;;;;;2.65;1.65;;;15.90;82.80;;;14.30;83.20;95272.66;4953344;28;20102;-68
2021/08/06 04:40:30;;;;;;;2.33;1.50;;;15.90;82.80;;;14.36;83.90;95268.28;4964067;28;20126;-68
2021/08/06 04:42:56;;;;;;;3.60;1.95;;;15.90;82.50;;;14.40;83.45;95266.78;4937958;28;20040;-67
2021/08/06 04:45:21;;;;;;;3.35;1.80;;;16.00;82.50;;;14.45;84.57;95269.53;4935429;29;20039;-68
2021/08/06 04:47:49;;;;;;;3.53;1.92;;;16.10;82.40;;;14.48;84.05;95277.00;4943366;28;20127;-67
2021/08/06 04:50:17;;;;;;;4.50;2.40;;;16.10;81.90;;;14.51;83.58;95281.06;4949449;28;20511;-68
2021/08/06 04:52:42;;;;;;;5.85;2.35;;;16.10;82.20;;;14.53;83.98;95277.13;4955454;28;20062;-68
2021/08/06 04:55:09;;;;;;;4.30;2.88;;;16.10;82.10;;;14.56;84.21;95278.50;4949076;28;20035;-69
2021/08/06 04:57:35;;;;;;;4.65;3.30;;;16.10;82.00;;;14.60;82.61;95282.28;4939730;28;20212;-68
2021/08/06 05:00:03;;;;;;;6.55;4.13;;;16.20;82.10;;;14.64;83.01;95278.13;4937246;29;20038;-68
2021/08/06 05:02:29;;;;;;;5.88;4.20;;;16.30;82.00;;;14.67;83.12;95278.47;4945312;29;20032;-67
2021/08/06 05:04:54;;;;;;;6.35;3.47;;;16.30;82.10;;;14.73;83.87;95275.94;4962990;28;20043;-67
2021/08/06 05:07:20;;;;;;;3.13;2.28;;;16.30;82.00;;;14.75;83.87;95271.22;4983360;28;20031;-67
2021/08/06 05:09:46;;;;;;;4.30;2.15;;;16.40;81.80;;;14.78;83.44;95276.84;4934991;28;20122;-67
2021/08/06 05:12:12;;;;;;;3.15;1.80;;;16.40;81.60;;;14.80;83.79;95276.59;4920292;29;20135;-67
2021/08/06 05:14:38;;;;;;;4.88;1.98;;;16.40;81.50;;;14.83;82.96;95274.28;4963548;28;20035;-67
2021/08/06 05:17:04;;;;;;;3.83;1.88;;;16.40;81.60;;;14.86;83.98;95280.94;4930339;28;20047;-67
2021/08/06 05:19:29;;;;;;;2.47;1.70;;;16.50;81.80;;;14.89;84.30;95270.69;4958469;28;20035;-68
2021/08/06 05:21:55;;;;;;;3.25;1.60;;;16.60;81.80;;;14.95;83.01;95276.91;4967309;28;20353;-68
2021/08/06 05:24:21;;;;;;;4.20;1.67;;;16.60;81.00;;;14.99;83.51;95278.84;4952385;28;20144;-68
2021/08/06 05:26:49;;;;;;;3.95;1.90;;;16.60;81.50;;;15.05;83.13;95276.28;4964778;28;20055;-67
2021/08/06 05:29:15;;;;;;;5.70;3.00;;;16.70;81.50;;;15.10;83.31;95277.19;4965763;28;20419;-66
2021/08/06 05:31:40;;;;;;;3.38;1.95;;;16.70;81.90;;;15.12;82.67;95275.09;4942037;28;20036;-67
2021/08/06 05:34:06;;;;;;;3.08;1.55;;;16.70;81.70;;;15.13;83.93;95274.06;4959018;28;20708;-68
2021/08/06 05:36:32;;;;;;;4.28;1.23;;;16.70;81.60;;;15.16;83.15;95268.31;4926685;28;20118;-68
2021/08/06 05:38:58;;;;;;;2.75;1.40;;;16.70;81.70;;;15.18;82.91;95274.16;4950963;28;20054;-67
2021/08/06 05:41:23;;;;;;;3.45;1.50;;;16.70;81.10;;;15.19;82.60;95267.03;4952600;28;20063;-65
2021/08/06 05:43:49;;;;;;;3.78;1.63;;;16.80;81.70;;;15.21;83.63;95272.88;4958829;28;20141;-66
2021/08/06 05:46:15;;;;;;;4.38;2.33;;;16.80;81.60;;;15.24;83.91;95270.56;4953758;28;20558;-66
2021/08/06 05:48:41;;;;;;;2.00;1.60;;;16.90;81.60;;;15.28;82.79;95273.53;4976649;28;20039;-66
2021/08/06 05:51:06;;;;;;;3.58;1.33;;;16.90;81.30;;;15.31;82.37;95279.16;4937871;28;20049;-66
2021/08/06 05:53:32;;;;;;;2.05;1.23;;;16.90;80.90;;;15.31;82.23;95273.84;4954923;28;20122;-67
2021/08/06 05:55:59;;;;;;;1.67;1.42;;;16.80;80.50;;;15.32;82.42;95270.16;4954408;28;20774;-66
2021/08/06 05:58:26;;;;;;;5.07;1.45;;;16.90;80.30;;;15.36;81.77;95265.19;4922281;28;20038;-66
2021/08/06 06:00:52;;;;;;;2.15;1.50;;;17.00;80.40;;;15.41;82.08;95272.44;4945880;28;20572;-66
2021/08/06 06:03:17;;;;;;;2.72;1.27;;;17.00;80.20;;;15.48;82.02;95263.28;4965266;28;20094;-65
2021/08/06 06:05:44;;;;;;;3.28;1.40;;;17.10;80.20;;;15.54;81.97;95264.97;4971838;28;20126;-66
2021/08/06 06:08:10;;;;;;;2.25;1.30;;;17.30;79.40;;;15.61;82.04;95264.84;4954510;28;20117;-66
2021/08/06 06:10:36;;;;;;;1.60;1.10;;;17.40;79.30;;;15.67;81.72;95266.53;4951120;28;20079;-66
2021/08/06 06:13:01;;;;;;;3.50;1.40;;;17.50;79.00;;;15.73;81.11;95265.56;4960837;28;20481;-65
2021/08/06 06:15:27;;;;;;;3.13;1.23;;;17.50;78.90;;;15.81;81.23;95267.81;4938467;28;20073;-67
2021/08/06 06:17:53;;;;;;;2.50;1.27;;;17.60;78.30;;;15.90;81.22;95266.38;4921609;28;20042;-66
2021/08/06 06:20:19;;;;;;;3.28;2.13;;;17.70;77.80;;;15.97;80.52;95262.75;4934721;28;20518;-66
2021/08/06 06:22:45;;;;;;;8.18;5.00;;;17.70;78.00;;;16.05;81.40;95259.66;4934463;28;20109;-67
2021/08/06 06:25:11;;;;;;;8.27;3.95;;;17.80;77.70;;;16.15;80.62;95252.69;4966504;28;20094;-68
2021/08/06 06:27:56;;;;;;;3.13;1.60;;;18.10;78.10;;;16.27;79.82;95260.53;4929386;28;20030;-67
2021/08/06 06:30:24;;;;;;;2.33;1.92;;;18.10;76.40;;;16.33;80.64;95251.59;4969859;28;20041;-68
2021/08/06 06:32:50;;;;;;;2.72;1.48;;;18.10;77.20;;;16.44;79.80;95274.56;4931076;28;20047;-68
2021/08/06 06:35:16;;;;;;;2.63;1.23;;;18.20;76.70;;;16.49;80.33;95257.88;4943583;28;20074;-67
2021/08/06 06:37:42;;;;;;;2.60;1.55;;;18.30;76.80;;;16.57;79.85;95272.59;4929611;28;20064;-69
2021/08/06 06:40:08;;;;;;;2.20;1.50;;;18.30;76.80;;;16.64;79.95;95260.75;4963734;28;20107;-67
2021/08/06 06:42:34;;;;;;;3.90;2.00;;;18.50;76.20;;;16.75;79.72;95272.34;4956332;28;20039;-66
2021/08/06 06:45:00;;;;;;;3.80;1.50;;;18.60;76.20;;;16.87;79.30;95275.66;4967938;28;20550;-67
2021/08/06 06:47:25;;;;;;;2.22;1.30;;;18.80;76.00;;;16.95;78.53;95272.53;4954230;28;20122;-67
2021/08/06 06:49:51;;;;;;;2.50;1.40;;;18.80;74.90;;;17.03;78.22;95272.13;4948070;28;20403;-70
2021/08/06 06:52:17;;;;;;;4.53;1.45;;;18.80;75.10;;;17.07;77.41;95270.56;4954505;28;20109;-66
2021/08/06 06:54:43;;;;;;;4.13;1.30;;;18.70;73.40;;;17.17;77.79;95271.72;4952447;28;20038;-67
2021/08/06 06:57:08;;;;;;;4.03;1.50;;;19.00;73.70;;;17.25;77.43;95271.28;4949598;28;20059;-66
2021/08/06 06:59:34;;;;;;;5.32;3.78;;;19.10;73.30;;;17.38;77.39;95269.00;4949990;28;20593;-67
2021/08/06 07:02:01;;;;;;;6.03;4.05;;;19.40;72.50;;;17.52;77.19;95266.75;4966879;28;20463;-67
2021/08/06 07:04:28;;;;;;;4.15;1.70;;;19.50;72.30;;;17.67;76.06;95274.91;4965809;28;20050;-67
2021/08/06 07:06:54;;;;;;;3.83;1.30;;;19.70;71.10;;;17.80;75.86;95268.34;4934416;28;20271;-67
2021/08/06 07:09:20;;;;;;;3.10;1.60;;;19.90;71.20;;;17.95;76.82;95271.13;4947658;28;20562;-68
2021/08/06 07:11:45;;;;;;;2.60;1.70;;;20.10;71.50;;;18.12;75.00;95281.63;4935288;28;20518;-67
2021/08/06 07:14:11;;;;;;;2.97;1.80;;;20.20;70.40;;;18.25;76.13;95285.69;4951748;28;20030;-68
2021/08/06 07:16:37;;;;;;;3.92;1.40;;;20.30;70.50;;;18.39;75.85;95304.69;4966821;28;20035;-68
2021/08/06 07:19:02;;;;;;;8.68;4.68;;;20.70;70.90;;;18.49;75.62;95315.41;4952220;28;20056;-68
2021/08/06 07:21:28;;;;;;;2.63;1.80;;;20.50;70.10;;;18.44;74.79;95320.69;4967143;28;20069;-68
2021/08/06 07:23:54;;;;;;;2.28;1.33;;;20.10;71.80;;;18.37;75.56;95342.22;4926119;28;20056;-68
2021/08/06 07:26:20;;;;;;;2.15;1.40;;;20.00;72.30;;;18.28;74.60;95357.06;4932202;29;20032;-66
2021/08/06 07:28:46;;;;;;;2.60;1.20;;;19.70;72.40;;;18.13;75.66;95367.59;4947994;28;20019;-67
2021/08/06 07:31:12;;;;;;;2.05;1.30;;;19.40;73.70;;;17.97;75.02;95369.31;4934378;28;20409;-66
2021/08/06 07:33:37;;;;;;;5.03;1.50;;;19.10;74.10;;;17.75;75.86;95378.16;4960129;28;20122;-66
2021/08/06 07:36:04;;;;;;;2.65;1.58;;;18.70;75.30;;;17.52;76.14;95381.09;4915677;29;20126;-65
2021/08/06 07:38:29;;;;;;;1.50;1.20;;;18.60;76.80;;;17.36;76.67;95390.75;4946439;28;20047;-64
2021/08/06 07:40:56;;;;;;;5.00;1.58;;;18.40;77.60;;;17.28;77.26;95396.50;4931703;28;20062;-64
2021/08/06 07:43:22;;;;;;;3.47;1.50;;;18.50;78.10;;;17.14;77.18;95398.72;4941123;28;20039;-66
2021/08/06 07:45:48;;;;;;;4.97;2.17;;;18.20;78.00;;;17.05;77.79;95375.50;4959043;28;20032;-66
2021/08/06 07:48:14;;;;;;;3.17;1.60;;;18.30;78.70;;;16.98;77.77;95357.09;4948882;28;20134;-66
2021/08/06 07:50:41;;;;;;;3.17;1.75;;;18.30;78.70;;;16.90;78.41;95370.78;4933015;29;20126;-67
2021/08/06 07:53:06;;;;;;;5.45;1.63;;;18.10;78.20;;;16.85;78.17;95389.31;4936637;28;20039;-66
2021/08/06 07:55:32;;;;;;;3.45;1.90;;;18.10;78.80;;;16.80;78.67;95386.59;4936945;28;20145;-66
2021/08/06 07:57:58;;;;;;;6.18;2.85;;;18.10;79.30;;;16.73;79.04;95385.94;4933533;28;20027;-67
2021/08/06 08:00:24;;;;;;;2.95;1.90;;;17.90;79.50;;;16.66;78.66;95391.44;4974090;28;20089;-66
2021/08/06 08:02:52;;;;;;;4.15;1.73;;;18.00;80.40;;;16.63;79.62;95385.78;4967692;28;20462;-67
2021/08/06 08:05:23;;;;;;;2.63;1.90;;;18.00;80.10;;;16.61;79.85;95398.50;4951552;28;20043;-64
2021/08/06 08:07:48;;;;;;;;;;;18.00;80.30;;;16.60;80.97;95395.03;4947745;28;20047;-64
2021/08/06 08:10:14;;;;;;;2.42;1.50;;;18.10;79.90;;;16.61;80.12;95385.22;4946252;28;20436;-65
2021/08/06 08:12:40;;;;;;;2.45;1.63;;;18.20;79.60;;;16.66;79.73;95377.31;4932592;28;20038;-65
2021/08/06 08:15:07;;;;;;;2.30;1.60;;;18.40;79.10;;;16.75;80.50;95384.69;4958537;28;20412;-65
2021/08/06 08:17:32;;;;;;;5.15;1.75;;;18.60;79.30;;;16.89;80.69;95389.63;4922604;28;20089;-65
2021/08/06 08:19:58;;;;;;;2.65;1.38;;;18.90;78.40;;;17.04;80.96;95377.34;4936152;28;20053;-64
2021/08/06 08:22:24;;;;;;;22.55;18.70;;;19.10;77.60;;;17.20;80.99;95380.16;4945604;28;20050;-65
2021/08/06 08:24:50;;;;;;;4.20;3.38;;;19.40;77.40;;;17.33;80.03;95390.44;4929793;28;20077;-64
2021/08/06 08:27:17;;;;;;;4.63;2.28;;;19.30;75.20;;;17.43;79.80;95379.94;4951775;28;20043;-66
2021/08/06 08:29:46;;;;;;;2.92;1.90;;;19.40;75.80;;;17.53;78.87;95384.56;4950559;28;20038;-65
2021/08/06 08:32:13;;;;;;;2.92;1.77;;;19.60;75.30;;;17.69;79.14;95379.19;4943423;28;20083;-66
2021/08/06 08:34:39;;;;;;;3.35;1.60;;;19.70;75.20;;;17.81;79.17;95387.00;4950342;28;20475;-65
2021/08/06 08:37:05;;;;;;;2.65;1.45;;;19.90;75.60;;;17.95;78.88;95390.06;4948426;28;20050;-66
2021/08/06 08:39:31;;;;;;;3.10;2.08;;;20.10;74.70;;;18.11;78.90;95383.81;4922778;28;20126;-64
2021/08/06 08:42:00;;;;;;;2.22;1.60;;;20.40;74.80;;;18.30;78.96;95384.22;4953228;28;20031;-66
2021/08/06 08:44:28;;;;;;;2.30;1.65;;;20.60;73.80;;;18.51;78.31;95383.31;4931562;28;20023;-66
2021/08/06 08:46:54;;;;;;;2.08;1.50;;;20.90;73.50;;;18.67;77.38;95374.41;4946229;28;20444;-65
2021/08/06 08:49:22;;;;;;;3.65;1.60;;;20.90;72.20;;;18.79;77.56;95373.41;4964704;28;20040;-65
2021/08/06 08:51:50;;;;;;;2.63;1.63;;;21.00;72.00;;;18.96;76.55;95382.81;4952536;28;20035;-66
2021/08/06 08:54:16;;;;;;;1.67;1.40;;;21.40;71.60;;;19.17;76.96;95377.59;4948203;28;20398;-64
2021/08/06 08:56:45;;;;;;;2.15;1.25;;;21.70;69.70;;;19.33;74.32;95373.94;4951453;28;20054;-65
2021/08/06 08:59:11;;;;;;;4.13;1.42;;;21.60;68.90;;;19.47;75.53;95376.91;4964616;28;21565;-64
2021/08/06 09:01:37;;;;;;;1.88;1.30;;;21.80;68.70;;;19.65;75.19;95383.66;4933756;28;20090;-64
2021/08/06 09:04:21;;;;;;;2.40;1.35;;;22.10;67.60;;;19.84;74.30;95379.41;4951634;28;20037;-65
2021/08/06 09:06:48;;;;;;;3.40;1.40;;;22.50;68.40;;;20.09;74.39;95379.44;4940037;28;20117;-66
2021/08/06 09:09:25;;;;;;;1.58;1.30;;;23.00;65.30;;;20.40;72.29;95387.50;4955073;28;20039;-65
2021/08/06 09:12:08;;;;;;;1.48;1.23;;;23.30;64.90;;;20.67;71.10;95385.34;4955118;28;20118;-64
2021/08/06 09:14:35;;;;;;;1.83;1.08;;;23.50;62.60;;;20.95;71.69;95375.13;4968486;28;20054;-65
2021/08/06 09:17:09;;;;;;;1.83;0.98;;;24.10;61.00;;;21.31;69.77;95379.31;4954556;28;20027;-65
2021/08/06 09:19:40;;;;;;;1.63;1.33;;;24.40;60.00;;;21.42;67.31;95373.91;4971475;28;20038;-65
2021/08/06 09:22:26;;;;;;;2.00;1.40;;;23.70;59.40;;;21.64;67.07;95372.47;4937552;28;20023;-64
2021/08/06 09:25:01;;;;;;;1.50;1.10;;;24.50;59.90;;;21.86;65.57;95374.75;4934156;28;20043;-65
2021/08/06 09:27:28;;;;;;;1.67;1.00;;;24.80;57.10;;;22.11;67.53;95376.47;4979309;28;20032;-66
2021/08/06 09:29:56;;;;;;;3.95;1.13;;;25.30;57.80;;;22.41;66.98;95378.13;4952096;28;20035;-65
2021/08/06 09:32:24;;;;;;;1.83;0.90;;;25.60;55.00;;;22.62;65.91;95376.84;4953178;28;20049;-65
2021/08/06 09:34:49;;;;;;;1.48;0.90;;;25.50;55.40;;;22.87;65.63;95375.06;4947232;28;20910;-65
2021/08/06 09:37:18;;;;;;;1.50;0.98;;;26.20;54.30;;;23.17;64.69;95377.41;4964444;28;20063;-65
2021/08/06 09:39:50;;;;;;;1.90;0.80;;;26.70;52.10;;;23.41;63.10;95381.97;4952783;28;20078;-64
2021/08/06 09:42:32;;;;;;;1.20;0.80;;;26.30;52.30;;;23.48;60.61;95366.28;4979836;28;20031;-64
2021/08/06 09:45:09;;;;;;;1.67;0.90;;;26.10;52.50;;;23.64;60.28;95373.09;4967319;28;20137;-64
2021/08/06 09:47:36;;;;;;;3.03;1.08;;;26.30;51.90;;;23.78;61.88;95365.94;4967594;28;20046;-64
2021/08/06 09:50:09;;;;;;;2.60;0.82;;;26.60;51.10;;;24.03;60.03;95374.72;4971636;28;20402;-63
2021/08/06 09:52:41;;;;;;;1.10;0.60;;;27.10;51.50;;;24.13;57.22;95366.47;4968606;28;20031;-65
2021/08/06 09:55:08;;;;;;;3.05;2.22;;;26.60;49.20;;;24.01;60.02;95366.16;4964275;28;20149;-64
2021/08/06 09:57:34;;;;;;;3.38;1.08;;;26.50;50.80;;;23.98;59.73;95369.41;4963694;28;20059;-66
2021/08/06 10:00:00;;;;;;;2.13;0.98;;;25.90;51.00;;;23.88;59.70;95364.19;4942117;28;20066;-64
2021/08/06 10:02:33;;;;;;;4.43;0.80;;;25.60;52.80;;;23.77;57.89;95358.97;4946831;28;20068;-65
2021/08/06 10:05:08;;;;;;;4.78;3.15;;;26.30;51.50;;;24.10;57.91;95361.69;4968215;28;20031;-63
2021/08/06 10:07:48;;;;;;;3.03;0.93;;;27.60;49.10;;;24.47;56.23;95362.78;4951571;28;20126;-65
2021/08/06 10:10:19;;;;;;;;;;;27.80;45.50;;;24.65;54.48;95351.94;4940998;28;20046;-64
2021/08/06 10:12:44;;;;;;;;;;;28.00;45.90;;;25.01;54.00;95354.00;4966555;28;19925;-64
2021/08/06 10:15:11;;;;;;;2.25;1.00;;;28.90;43.00;;;25.24;58.86;95353.03;4950831;28;19922;-63
2021/08/06 10:17:37;;;;;;;1.85;0.88;;;28.50;43.90;;;25.38;56.42;95353.03;4944657;28;20027;-63
2021/08/06 10:20:08;;;;;;;2.85;1.10;;;28.10;44.50;;;25.41;53.44;95354.31;4969748;28;20031;-63
2021/08/06 10:22:33;;;;;;;1.98;0.90;;;27.80;45.10;;;25.23;54.45;95350.63;4963071;28;20414;-64